Time;durP1;ratioP1;P1;durP2;ratioP2;P2;SDS_P1;SDS_P2;PMS_P1;PMS_P2;Temp;Humidity;BMP_temperature;BMP_pressure;BME280_temperature;BME280_humidity;BME280_pressure;Samples;Min_cycle;Max_cycle;Signal;HPM_P1;HPM_P2
2023/12/28 00:02:15;;;;;;;;;;;;;;;10.67;100.00;100646.09;5108563;28;19996;-44
2023/12/28 00:04:40;;;;;;;;;;;;;;;10.64;100.00;100641.91;5103711;27;20023;-47
2023/12/28 00:07:06;;;;;;;;;;;;;;;10.58;100.00;100666.84;5105997;28;20360;-45
2023/12/28 00:09:31;;;;;;;;;;;;;;;10.60;100.00;100645.16;5108856;28;19919;-45
2023/12/28 00:11:56;;;;;;;;;;;;;;;10.56;100.00;100655.47;5108699;28;19920;-46
2023/12/28 00:14:21;;;;;;;;;;;;;;;10.53;100.00;100639.66;5108714;28;19926;-44
2023/12/28 00:16:47;;;;;;;;;;;;;;;10.52;100.00;100654.16;5108375;28;19922;-46
2023/12/28 00:19:12;;;;;;;;;;;;;;;10.49;100.00;100659.91;5096199;28;19935;-47
2023/12/28 00:21:37;;;;;;;;;;;;;;;10.44;100.00;100668.53;5109444;28;20301;-44
2023/12/28 00:24:03;;;;;;;;;;;;;;;10.41;100.00;100658.16;5108870;28;20354;-44
2023/12/28 00:26:28;;;;;;;;;;;;;;;10.44;100.00;100657.78;5105669;28;19942;-45
2023/12/28 00:28:53;;;;;;;;;;;;;;;10.39;100.00;100657.50;5108730;28;20433;-45
2023/12/28 00:31:19;;;;;;;;;;;;;;;10.35;100.00;100663.41;5108531;28;19927;-46
2023/12/28 00:33:44;;;;;;;;;;;;;;;10.29;100.00;100676.63;5110269;28;20285;-44
2023/12/28 00:36:09;;;;;;;;;;;;;;;10.30;100.00;100672.88;5108423;28;20293;-44
2023/12/28 00:38:34;;;;;;;;;;;;;;;10.29;100.00;100673.94;5107758;28;20274;-46
2023/12/28 00:41:00;;;;;;;;;;;;;;;10.26;100.00;100671.53;5106776;28;19916;-45
2023/12/28 00:43:25;;;;;;;;;;;;;;;10.25;100.00;100669.06;5107841;28;19920;-46
2023/12/28 00:45:50;;;;;;;;;;;;;;;10.28;100.00;100674.09;5109222;28;20305;-45
2023/12/28 00:48:15;;;;;;;;;;;;;;;10.23;100.00;100674.59;5102941;28;20389;-47
2023/12/28 00:50:40;;;;;;;;;;;;;;;10.18;100.00;100690.47;5108023;28;20289;-46
2023/12/28 00:53:06;;;;;;;;;;;;;;;10.21;100.00;100668.56;5107202;28;19969;-46
2023/12/28 00:55:31;;;;;;;;;;;;;;;10.09;100.00;100667.38;5107625;28;19916;-45
2023/12/28 00:57:56;;;;;;;;;;;;;;;10.10;100.00;100656.41;5106498;28;19931;-45
2023/12/28 01:00:22;;;;;;;;;;;;;;;10.03;100.00;100671.63;5105241;28;19916;-45
2023/12/28 01:02:47;;;;;;;;;;;;;;;10.06;100.00;100660.50;5102683;28;20409;-46
2023/12/28 01:05:13;;;;;;;;;;;;;;;10.06;100.00;100687.38;5104776;28;20483;-46
2023/12/28 01:07:38;;;;;;;;;;;;;;;10.06;100.00;100675.81;5099681;28;20095;-46
2023/12/28 01:10:03;;;;;;;;;;;;;;;10.05;100.00;100669.56;5107539;28;19977;-46
2023/12/28 01:12:29;;;;;;;;;;;;;;;10.05;100.00;100669.56;5106753;28;19924;-46
2023/12/28 01:14:54;;;;;;;;;;;;;;;10.05;100.00;100672.25;5104502;28;20289;-44
2023/12/28 01:17:19;;;;;;;;;;;;;;;10.10;100.00;100674.41;5107679;28;20301;-45
2023/12/28 01:19:44;;;;;;;;;;;;;;;10.14;100.00;100656.91;5108189;28;20257;-46
2023/12/28 01:22:10;;;;;;;;;;;;;;;10.09;100.00;100670.06;5106243;28;20038;-44
2023/12/28 01:24:35;;;;;;;;;;;;;;;10.12;100.00;100675.06;5106800;28;19927;-45
2023/12/28 01:27:00;;;;;;;;;;;;;;;10.10;100.00;100660.97;5103423;28;19968;-46
2023/12/28 01:29:25;;;;;;;;;;;;;;;10.14;100.00;100662.28;5107642;28;19912;-45
2023/12/28 01:31:51;;;;;;;;;;;;;;;10.07;100.00;100672.09;5108004;28;19916;-50
2023/12/28 01:34:16;;;;;;;;;;;;;;;10.09;100.00;100664.69;5107377;28;19927;-46
2023/12/28 01:36:43;;;;;;;;;;;;;;;10.04;100.00;100667.06;5107302;28;19931;-45
2023/12/28 01:39:10;;;;;;;;;;;;;;;10.04;100.00;100688.59;5104249;28;19935;-45
2023/12/28 01:41:35;;;;;;;;;;;;;;;10.08;100.00;100690.75;5107227;28;19942;-48
2023/12/28 01:44:01;;;;;;;;;;;;;;;10.06;100.00;100697.31;5106938;28;19916;-46
2023/12/28 01:46:26;;;;;;;;;;;;;;;10.09;100.00;100705.00;5106724;28;19922;-44
2023/12/28 01:48:51;;;;;;;;;;;;;;;10.08;100.00;100703.31;5107788;28;20378;-45
2023/12/28 01:51:17;;;;;;;;;;;;;;;10.09;100.00;100696.94;5102487;28;19963;-46
2023/12/28 01:53:45;;;;;;;;;;;;;;;10.13;100.00;100682.09;5103836;28;19920;-43
2023/12/28 01:56:10;;;;;;;;;;;;;;;10.17;100.00;100680.72;5100456;28;19924;-48
2023/12/28 01:58:36;;;;;;;;;;;;;;;10.12;100.00;100691.19;5097564;28;19923;-47
2023/12/28 02:01:01;;;;;;;;;;;;;;;10.07;100.00;100680.97;5103429;28;19926;-47
2023/12/28 02:03:27;;;;;;;;;;;;;;;10.04;100.00;100694.78;5103597;28;19923;-45
2023/12/28 02:05:52;;;;;;;;;;;;;;;10.05;100.00;100685.69;5106842;28;20286;-46
2023/12/28 02:08:17;;;;;;;;;;;;;;;10.02;100.00;100678.00;5106662;28;20011;-46
2023/12/28 02:10:42;;;;;;;;;;;;;;;9.98;100.00;100673.16;5106638;28;20010;-45
2023/12/28 02:13:08;;;;;;;;;;;;;;;10.02;100.00;100682.56;5106414;28;20015;-45
2023/12/28 02:15:33;;;;;;;;;;;;;;;10.01;100.00;100657.53;5107206;28;19943;-45
2023/12/28 02:17:59;;;;;;;;;;;;;;;10.06;100.00;100665.06;5106039;28;19915;-47
2023/12/28 02:20:24;;;;;;;;;;;;;;;10.04;100.00;100667.06;5096826;28;19916;-45
2023/12/28 02:22:49;;;;;;;;;;;;;;;10.08;100.00;100679.13;5106988;28;19990;-45
2023/12/28 02:25:15;;;;;;;;;;;;;;;10.11;100.00;100668.03;5101474;28;20356;-44
2023/12/28 02:27:46;;;;;;;;;;;;;;;10.15;100.00;100672.00;5105864;28;20626;-46
2023/12/28 02:30:11;;;;;;;;;;;;;;;10.15;100.00;100682.75;5106353;28;19931;-48
2023/12/28 02:32:51;;;;;;;;;;;;;;;10.09;100.00;100660.13;5106501;28;19924;-46
2023/12/28 02:35:18;;;;;;;;;;;;;;;10.09;100.00;100662.81;5103284;28;19928;-46
2023/12/28 02:37:44;;;;;;;;;;;;;;;10.11;100.00;100674.22;5105405;28;20408;-46
2023/12/28 02:40:09;;;;;;;;;;;;;;;10.11;100.00;100668.84;5105848;28;20004;-45
2023/12/28 02:42:34;;;;;;;;;;;;;;;10.09;100.00;100667.38;5106587;28;19915;-47
2023/12/28 02:44:59;;;;;;;;;;;;;;;10.10;100.00;100690.53;5106041;28;19919;-46
2023/12/28 02:47:25;;;;;;;;;;;;;;;10.10;100.00;100687.84;5107087;28;19922;-48
2023/12/28 02:49:50;;;;;;;;;;;;;;;10.08;100.00;100684.50;5107915;28;19915;-45
2023/12/28 02:52:15;;;;;;;;;;;;;;;10.10;100.00;100672.53;5110405;28;19931;-46
2023/12/28 02:54:40;;;;;;;;;;;;;;;10.06;100.00;100686.56;5105216;28;19924;-44
2023/12/28 02:57:05;;;;;;;;;;;;;;;10.02;100.00;100687.94;5106338;28;19930;-46
2023/12/28 02:59:31;;;;;;;;;;;;;;;10.03;100.00;100685.06;5110934;27;19916;-46
2023/12/28 03:01:56;;;;;;;;;;;;;;;10.06;100.00;100665.88;5110062;28;19916;-46
2023/12/28 03:04:21;;;;;;;;;;;;;;;10.00;100.00;100665.75;5110090;28;19916;-45
2023/12/28 03:06:46;;;;;;;;;;;;;;;9.96;100.00;100653.72;5111317;28;20011;-47
2023/12/28 03:09:11;;;;;;;;;;;;;;;9.97;100.00;100682.25;5109919;28;20010;-47
2023/12/28 03:11:37;;;;;;;;;;;;;;;10.01;100.00;100651.31;5109685;28;20019;-46
2023/12/28 03:14:02;;;;;;;;;;;;;;;9.99;100.00;100658.72;5109549;28;20018;-46
2023/12/28 03:16:27;;;;;;;;;;;;;;;9.95;100.00;100652.84;5109761;28;19920;-44
2023/12/28 03:18:52;;;;;;;;;;;;;;;9.96;100.00;100642.97;5109834;28;19916;-46
2023/12/28 03:21:18;;;;;;;;;;;;;;;9.94;100.00;100645.00;5110535;28;19912;-45
2023/12/28 03:23:43;;;;;;;;;;;;;;;9.94;100.00;100639.63;5110569;27;19923;-45
2023/12/28 03:26:08;;;;;;;;;;;;;;;9.95;100.00;100647.47;5096548;28;20079;-46
2023/12/28 03:28:33;;;;;;;;;;;;;;;9.93;100.00;100657.59;5109824;28;19915;-46
2023/12/28 03:30:58;;;;;;;;;;;;;;;9.94;100.00;100640.44;5105407;28;19976;-46
2023/12/28 03:33:24;;;;;;;;;;;;;;;9.96;100.00;100642.97;5101577;28;19955;-46
2023/12/28 03:35:50;;;;;;;;;;;;;;;9.97;100.00;100639.25;5100751;28;20369;-47
2023/12/28 03:38:16;;;;;;;;;;;;;;;9.98;100.00;100640.91;5109970;28;19924;-45
2023/12/28 03:40:41;;;;;;;;;;;;;;;10.01;100.00;100635.19;5107039;28;19931;-47
2023/12/28 03:43:06;;;;;;;;;;;;;;;10.06;100.00;100646.22;5105774;28;19965;-45
2023/12/28 03:45:31;;;;;;;;;;;;;;;10.09;100.00;100632.41;5109036;28;20326;-46
2023/12/28 03:47:57;;;;;;;;;;;;;;;10.08;100.00;100638.78;5109042;28;19916;-46
2023/12/28 03:50:22;;;;;;;;;;;;;;;10.10;100.00;100631.38;5107307;28;19916;-45
2023/12/28 03:52:47;;;;;;;;;;;;;;;10.11;100.00;100643.81;5108713;28;20366;-45
2023/12/28 03:55:12;;;;;;;;;;;;;;;10.15;100.00;100636.22;5107369;28;20384;-46
2023/12/28 03:57:38;;;;;;;;;;;;;;;10.19;100.00;100649.13;5104809;28;20425;-45
2023/12/28 04:00:04;;;;;;;;;;;;;;;10.21;100.00;100630.09;5106325;28;19923;-44
2023/12/28 04:02:31;;;;;;;;;;;;;;;10.23;100.00;100634.25;5109322;28;19912;-47
2023/12/28 04:04:58;;;;;;;;;;;;;;;10.23;100.00;100636.94;5108337;28;19916;-46
2023/12/28 04:07:23;;;;;;;;;;;;;;;10.24;100.00;100635.09;5105961;28;19950;-45
2023/12/28 04:09:49;;;;;;;;;;;;;;;10.25;100.00;100626.84;5106348;28;19966;-46
2023/12/28 04:12:14;;;;;;;;;;;;;;;10.27;100.00;100635.59;5107929;28;19927;-45
2023/12/28 04:14:39;;;;;;;;;;;;;;;10.26;100.00;100633.88;5110537;28;19930;-44
2023/12/28 04:17:04;;;;;;;;;;;;;;;10.28;100.00;100642.66;5109767;28;19920;-44
2023/12/28 04:19:30;;;;;;;;;;;;;;;10.30;100.00;100635.22;5105735;28;19923;-45
2023/12/28 04:21:55;;;;;;;;;;;;;;;10.33;100.00;100645.63;5106915;28;19916;-46
2023/12/28 04:24:21;;;;;;;;;;;;;;;10.36;100.00;100635.50;5106753;28;19916;-45
2023/12/28 04:26:46;;;;;;;;;;;;;;;10.38;100.00;100641.56;5109418;28;20404;-43
2023/12/28 04:29:11;;;;;;;;;;;;;;;10.38;100.00;100631.63;5108461;28;20408;-45
2023/12/28 04:31:43;;;;;;;;;;;;;;;10.40;100.00;100617.97;5093825;28;19924;-46
2023/12/28 04:34:08;;;;;;;;;;;;;;;10.39;100.00;100637.81;5104328;28;19923;-45
2023/12/28 04:36:39;;;;;;;;;;;;;;;10.42;100.00;100642.84;5107775;28;20442;-45
2023/12/28 04:39:04;;;;;;;;;;;;;;;10.46;100.00;100633.38;5105084;28;19952;-46
2023/12/28 04:41:29;;;;;;;;;;;;;;;10.48;100.00;100642.13;5108473;28;19982;-46
2023/12/28 04:43:54;;;;;;;;;;;;;;;10.46;100.00;100644.16;5103206;28;19968;-45
2023/12/28 04:46:19;;;;;;;;;;;;;;;10.44;100.00;100656.94;5108344;28;19916;-46
2023/12/28 04:48:45;;;;;;;;;;;;;;;10.46;100.00;100633.38;5108354;28;20674;-45
2023/12/28 04:51:10;;;;;;;;;;;;;;;10.47;100.00;100651.19;5105470;28;19963;-47
2023/12/28 04:53:35;;;;;;;;;;;;;;;10.49;100.00;100654.53;5108143;28;20360;-44
2023/12/28 04:56:00;;;;;;;;;;;;;;;10.48;100.00;100655.56;5104950;28;19923;-45
2023/12/28 04:58:26;;;;;;;;;;;;;;;10.50;100.00;100645.44;5108149;28;19916;-45
2023/12/28 05:00:51;;;;;;;;;;;;;;;10.57;100.00;100650.91;5108636;28;19916;-47
2023/12/28 05:03:16;;;;;;;;;;;;;;;10.53;100.00;100645.03;5109208;28;19920;-46
2023/12/28 05:05:41;;;;;;;;;;;;;;;10.52;100.00;100664.91;5094741;28;19924;-46
2023/12/28 05:08:07;;;;;;;;;;;;;;;10.53;100.00;100653.97;5107504;28;19923;-46
2023/12/28 05:10:32;;;;;;;;;;;;;;;10.59;100.00;100662.34;5107929;28;19923;-46
2023/12/28 05:12:57;;;;;;;;;;;;;;;10.59;100.00;100660.47;5106878;28;19920;-47
2023/12/28 05:15:23;;;;;;;;;;;;;;;10.57;100.00;100657.13;5107538;28;20430;-45
2023/12/28 05:17:50;;;;;;;;;;;;;;;10.58;100.00;100666.84;5107389;28;19916;-45
2023/12/28 05:20:15;;;;;;;;;;;;;;;10.61;100.00;100647.66;5108017;28;19974;-45
2023/12/28 05:22:40;;;;;;;;;;;;;;;10.60;100.00;100650.53;5107486;28;19962;-45
2023/12/28 05:25:07;;;;;;;;;;;;;;;10.60;100.00;100656.75;5107992;28;19964;-44
2023/12/28 05:27:32;;;;;;;;;;;;;;;10.60;100.00;100651.38;5107212;28;20022;-45
2023/12/28 05:29:57;;;;;;;;;;;;;;;10.57;100.00;100646.34;5101907;28;20021;-46
2023/12/28 05:32:22;;;;;;;;;;;;;;;10.59;100.00;100659.63;5107852;28;19916;-47
2023/12/28 05:34:49;;;;;;;;;;;;;;;10.59;100.00;100665.03;5105884;28;19915;-47
2023/12/28 05:37:15;;;;;;;;;;;;;;;10.61;100.00;100679.09;5108041;28;19981;-47
2023/12/28 05:39:40;;;;;;;;;;;;;;;10.61;100.00;100660.25;5106827;28;20090;-47
2023/12/28 05:42:05;;;;;;;;;;;;;;;10.62;100.00;100649.31;5107287;28;20270;-45
2023/12/28 05:44:30;;;;;;;;;;;;;;;10.63;100.00;100710.19;5106678;28;19916;-46
2023/12/28 05:46:57;;;;;;;;;;;;;;;10.64;100.00;100662.59;5104750;28;20315;-46
2023/12/28 05:49:22;;;;;;;;;;;;;;;10.64;100.00;100641.91;5107842;28;20067;-46
2023/12/28 05:51:47;;;;;;;;;;;;;;;10.67;100.00;100667.63;5106958;28;19968;-44
2023/12/28 05:54:13;;;;;;;;;;;;;;;10.63;100.00;100667.13;5103879;28;19924;-45
2023/12/28 05:56:38;;;;;;;;;;;;;;;10.62;100.00;100684.31;5106714;28;19920;-44
2023/12/28 05:59:03;;;;;;;;;;;;;;;10.65;100.00;100665.09;5106659;28;19998;-45
2023/12/28 06:01:28;;;;;;;;;;;;;;;10.67;100.00;100662.22;5106273;28;20186;-44
2023/12/28 06:03:53;;;;;;;;;;;;;;;10.67;100.00;100668.44;5107308;28;19912;-45
2023/12/28 06:06:19;;;;;;;;;;;;;;;10.68;100.00;100685.41;5105227;28;19938;-45
2023/12/28 06:08:44;;;;;;;;;;;;;;;10.69;100.00;100682.56;5107477;28;19919;-46
2023/12/28 06:11:09;;;;;;;;;;;;;;;10.68;100.00;100675.47;5107122;28;19924;-45
2023/12/28 06:13:35;;;;;;;;;;;;;;;10.68;100.00;100667.41;5106468;28;19920;-46
2023/12/28 06:16:00;;;;;;;;;;;;;;;10.64;100.00;100674.19;5107102;28;19923;-46
2023/12/28 06:18:26;;;;;;;;;;;;;;;10.62;100.00;100670.84;5106541;28;19998;-46
2023/12/28 06:20:51;;;;;;;;;;;;;;;10.63;100.00;100677.91;5104285;28;20434;-46
2023/12/28 06:23:16;;;;;;;;;;;;;;;10.66;100.00;100664.06;5106764;28;19920;-46
2023/12/28 06:25:41;;;;;;;;;;;;;;;10.67;100.00;100679.22;5111076;28;19967;-45
2023/12/28 06:28:07;;;;;;;;;;;;;;;10.67;100.00;100671.13;5108001;28;19924;-46
2023/12/28 06:30:32;;;;;;;;;;;;;;;10.65;100.00;100669.66;5110615;28;19912;-45
2023/12/28 06:32:57;;;;;;;;;;;;;;;10.67;100.00;100673.81;5110109;28;19916;-45
2023/12/28 06:35:23;;;;;;;;;;;;;;;10.62;100.00;100668.16;5110822;28;19951;-45
2023/12/28 06:37:48;;;;;;;;;;;;;;;10.58;100.00;100682.16;5108385;28;19916;-46
2023/12/28 06:40:13;;;;;;;;;;;;;;;10.52;100.00;100706.09;5110779;28;20375;-46
2023/12/28 06:42:38;;;;;;;;;;;;;;;10.54;100.00;100708.63;5109465;28;20338;-46
2023/12/28 06:45:04;;;;;;;;;;;;;;;10.57;100.00;100705.56;5110663;28;20015;-46
2023/12/28 06:47:29;;;;;;;;;;;;;;;10.53;100.00;100707.78;5111628;28;19916;-47
2023/12/28 06:49:55;;;;;;;;;;;;;;;10.54;100.00;100749.00;5097653;28;19919;-46
2023/12/28 06:52:20;;;;;;;;;;;;;;;10.57;100.00;100705.56;5108241;27;19923;-48
2023/12/28 06:54:45;;;;;;;;;;;;;;;10.55;100.00;100703.03;5110301;28;20018;-45
2023/12/28 06:57:10;;;;;;;;;;;;;;;10.49;100.00;100711.88;5107738;28;19958;-45
2023/12/28 06:59:36;;;;;;;;;;;;;;;10.47;100.00;100711.22;5109510;28;19970;-46
2023/12/28 07:02:01;;;;;;;;;;;;;;;10.43;100.00;100719.84;5104071;28;20427;-47
2023/12/28 07:04:29;;;;;;;;;;;;;;;10.41;100.00;100721.88;5106920;28;20370;-45
2023/12/28 07:06:54;;;;;;;;;;;;;;;10.40;100.00;100739.03;5110060;28;19971;-46
2023/12/28 07:09:20;;;;;;;;;;;;;;;10.44;100.00;100743.88;5106698;28;19951;-46
2023/12/28 07:11:45;;;;;;;;;;;;;;;10.45;100.00;100732.09;5109761;28;20446;-44
2023/12/28 07:14:10;;;;;;;;;;;;;;;10.46;100.00;100743.69;5109037;28;20050;-47
2023/12/28 07:16:35;;;;;;;;;;;;;;;10.43;100.00;100752.97;5109540;27;20018;-46
2023/12/28 07:19:01;;;;;;;;;;;;;;;10.50;100.00;100753.06;5109906;28;19939;-47
2023/12/28 07:21:26;;;;;;;;;;;;;;;10.53;100.00;100742.78;5109817;28;19923;-47
2023/12/28 07:23:51;;;;;;;;;;;;;;;10.50;100.00;100736.91;5110927;28;19922;-45
2023/12/28 07:26:16;;;;;;;;;;;;;;;10.49;100.00;100746.84;5110756;28;20003;-46
2023/12/28 07:28:44;;;;;;;;;;;;;;;10.48;100.00;100760.50;5105055;28;19966;-46
2023/12/28 07:31:09;;;;;;;;;;;;;;;10.49;100.00;100748.72;5109294;28;20323;-46
2023/12/28 07:33:35;;;;;;;;;;;;;;;10.46;100.00;100762.53;5109106;28;19924;-44
2023/12/28 07:36:02;;;;;;;;;;;;;;;10.47;100.00;100762.34;5104087;28;19966;-44
2023/12/28 07:38:27;;;;;;;;;;;;;;;10.48;100.00;100752.44;5107747;28;20392;-46
2023/12/28 07:40:52;;;;;;;;;;;;;;;10.47;100.00;100758.81;5102046;28;19955;-46
2023/12/28 07:43:18;;;;;;;;;;;;;;;10.47;100.00;100769.56;5108907;28;19951;-48
2023/12/28 07:45:43;;;;;;;;;;;;;;;10.42;100.00;100762.03;5106529;28;19993;-45
2023/12/28 07:48:08;;;;;;;;;;;;;;;10.44;100.00;100764.56;5101141;28;20416;-46
2023/12/28 07:50:33;;;;;;;;;;;;;;;10.36;100.00;100767.34;5107151;28;20346;-46
2023/12/28 07:52:59;;;;;;;;;;;;;;;10.30;100.00;100764.34;5108887;28;20393;-45
2023/12/28 07:55:25;;;;;;;;;;;;;;;10.27;100.00;100771.94;5108961;28;20366;-45
2023/12/28 07:57:51;;;;;;;;;;;;;;;10.31;100.00;100781.31;5106224;28;19916;-46
2023/12/28 08:00:16;;;;;;;;;;;;;;;10.29;100.00;100786.91;5108526;27;20270;-46
2023/12/28 08:02:41;;;;;;;;;;;;;;;10.31;100.00;100809.06;5108408;28;20385;-49
2023/12/28 08:05:07;;;;;;;;;;;;;;;10.31;100.00;100787.53;5108645;28;20296;-45
2023/12/28 08:07:32;;;;;;;;;;;;;;;10.33;100.00;100781.97;5106540;28;19961;-48
2023/12/28 08:09:57;;;;;;;;;;;;;;;10.32;100.00;100783.84;5106629;28;20409;-45
2023/12/28 08:12:24;;;;;;;;;;;;;;;10.36;100.00;100780.78;5106799;28;19969;-47
2023/12/28 08:14:49;;;;;;;;;;;;;;;10.33;100.00;100787.38;5106062;28;20011;-45
2023/12/28 08:17:14;;;;;;;;;;;;;;;10.32;100.00;100783.84;5108255;28;19988;-45
2023/12/28 08:19:40;;;;;;;;;;;;;;;10.35;100.00;100785.34;5108753;28;19920;-45
2023/12/28 08:22:05;;;;;;;;;;;;;;;10.33;100.00;100784.69;5107728;27;19957;-46
2023/12/28 08:24:30;;;;;;;;;;;;;;;10.31;100.00;100792.91;5105044;28;19970;-46
2023/12/28 08:26:59;;;;;;;;;;;;;;;10.27;100.00;100791.63;5107835;28;19916;-46
2023/12/28 08:29:24;;;;;;;;;;;;;;;10.26;100.00;100787.22;5104638;28;19919;-47
2023/12/28 08:31:49;;;;;;;;;;;;;;;10.24;100.00;100791.97;5112273;28;20290;-46
2023/12/28 08:34:15;;;;;;;;;;;;;;;10.22;100.00;100803.91;5107906;28;19939;-46
2023/12/28 08:36:40;;;;;;;;;;;;;;;10.21;100.00;100803.03;5107260;28;19919;-45
2023/12/28 08:39:05;;;;;;;;;;;;;;;10.24;100.00;100818.84;5107490;28;19928;-45
2023/12/28 08:41:30;;;;;;;;;;;;;;;10.21;100.00;100813.81;5106114;28;19924;-44
2023/12/28 08:43:56;;;;;;;;;;;;;;;10.22;100.00;100811.97;5103172;28;19969;-46
2023/12/28 08:46:21;;;;;;;;;;;;;;;10.24;100.00;100829.59;5098494;28;19924;-47
2023/12/28 08:48:46;;;;;;;;;;;;;;;10.23;100.00;100805.56;5104343;28;19926;-45
2023/12/28 08:51:14;;;;;;;;;;;;;;;10.17;100.00;100828.66;5103942;28;20349;-44
2023/12/28 08:53:39;;;;;;;;;;;;;;;10.08;100.00;100824.31;5080930;28;19931;-46
2023/12/28 08:56:17;;;;;;;;;;;;;;;9.97;100.00;100830.13;5105841;28;19916;-46
2023/12/28 08:58:42;;;;;;;;;;;;;;;10.06;100.00;100826.38;5104360;28;20273;-46
2023/12/28 09:01:08;;;;;;;;;;;;;;;10.09;100.00;100815.25;5096460;28;20738;-44
2023/12/28 09:03:33;;;;;;;;;;;;;;;10.20;100.00;100814.84;5104639;28;19951;-46
2023/12/28 09:05:58;;;;;;;;;;;;;;;10.29;100.00;100829.94;5102276;28;20286;-44
2023/12/28 09:08:31;;;;;;;;;;;;;;;10.31;100.00;100822.50;5050590;27;20305;-47
2023/12/28 09:10:56;;;;;;;;;;;;;;;10.37;100.00;100822.78;5061397;27;19947;-46
2023/12/28 09:13:22;;;;;;;;;;;;;;;10.43;100.00;100843.63;5058781;27;20397;-45
2023/12/28 09:15:47;;;;;;;;;;;;;;;10.46;100.00;100817.19;5047940;27;19919;-46
2023/12/28 09:18:12;;;;;;;;;;;;;;;10.52;100.00;100827.19;5072541;27;19929;-45
2023/12/28 09:20:37;;;;;;;;;;;;;;;10.47;100.00;100836.84;5061341;27;20067;-44
2023/12/28 09:23:02;;;;;;;;;;;;;;;10.45;100.00;100836.19;5066679;27;20013;-45
2023/12/28 09:25:28;;;;;;;;;;;;;;;10.38;100.00;100851.38;5046860;27;20046;-44
2023/12/28 09:27:53;;;;;;;;;;;;;;;10.38;100.00;100836.09;5047416;27;19921;-47
2023/12/28 09:30:18;;;;;;;;;;;;;;;10.37;100.00;100853.22;5054091;27;20027;-45
2023/12/28 09:32:44;;;;;;;;;;;;;;;10.31;100.00;100860.16;5052892;27;19969;-46
2023/12/28 09:35:09;;;;;;;;;;;;;;;10.25;100.00;100860.84;5049352;27;19932;-46
2023/12/28 09:37:34;;;;;;;;;;;;;;;10.22;100.00;100871.97;5039636;27;19917;-45
2023/12/28 09:39:59;;;;;;;;;;;;;;;10.15;100.00;100883.63;5064271;27;19917;-46
2023/12/28 09:42:29;;;;;;;;;;;;;;;10.16;100.00;100883.44;5059342;27;19917;-45
2023/12/28 09:44:54;;;;;;;;;;;;;;;10.07;100.00;100877.28;5043327;27;20016;-47
2023/12/28 09:47:19;;;;;;;;;;;;;;;9.94;100.00;100895.00;5079826;27;20000;-45
2023/12/28 09:49:45;;;;;;;;;;;;;;;9.87;100.00;100898.41;5075029;27;19958;-46
2023/12/28 09:52:10;;;;;;;;;;;;;;;9.92;100.00;100883.59;5037927;27;20310;-46
2023/12/28 09:54:35;;;;;;;;;;;;;;;9.85;100.00;100900.44;5060079;27;20384;-46
2023/12/28 09:57:00;;;;;;;;;;;;;;;9.93;100.00;100890.66;5067211;27;20422;-46
2023/12/28 09:59:26;;;;;;;;;;;;;;;9.95;100.00;100891.31;5079613;27;20364;-46
2023/12/28 10:01:51;;;;;;;;;;;;;;;10.05;100.00;100890.06;5096242;27;19923;-46
2023/12/28 10:04:16;;;;;;;;;;;;;;;10.19;100.00;100910.00;5059822;27;19931;-46
2023/12/28 10:06:42;;;;;;;;;;;;;;;10.29;100.00;100904.41;5093548;27;19967;-46
2023/12/28 10:09:07;;;;;;;;;;;;;;;10.44;100.00;100874.88;5109445;27;19919;-47
2023/12/28 10:11:33;;;;;;;;;;;;;;;10.53;100.00;100879.16;5097730;27;19953;-45
2023/12/28 10:13:58;;;;;;;;;;;;;;;10.63;100.00;100873.53;5119301;27;20369;-47
2023/12/28 10:16:23;;;;;;;;;;;;;;;10.64;100.00;100878.75;5070328;27;19948;-47
2023/12/28 10:18:49;;;;;;;;;;;;;;;10.67;100.00;100864.94;5077345;27;19922;-46
2023/12/28 10:21:14;;;;;;;;;;;;;;;10.72;100.00;100875.97;5090477;27;19921;-47
2023/12/28 10:23:40;;;;;;;;;;;;;;;10.74;100.00;100876.66;5102402;27;19930;-46
2023/12/28 10:26:06;;;;;;;;;;;;;;;10.81;100.00;100867.81;5032900;27;19917;-46
2023/12/28 10:28:38;;;;;;;;;;;;;;;10.80;100.00;100863.47;5088952;27;20230;-46
2023/12/28 10:31:04;;;;;;;;;;;;;;;10.83;100.00;100834.31;5055420;27;19928;-46
2023/12/28 10:33:33;;;;;;;;;;;;;;;10.87;100.00;100857.16;5064436;27;19915;-46
2023/12/28 10:35:59;;;;;;;;;;;;;;;10.85;100.00;100863.72;5033884;27;20371;-46
2023/12/28 10:38:24;;;;;;;;;;;;;;;10.91;100.00;100863.03;5085603;27;19924;-46
2023/12/28 10:40:49;;;;;;;;;;;;;;;10.93;100.00;100855.59;5067684;27;19925;-46
2023/12/28 10:43:15;;;;;;;;;;;;;;;10.89;100.00;100862.38;5026288;28;20163;-46
2023/12/28 10:45:43;;;;;;;;;;;;;;;10.88;100.00;100852.63;5068575;27;20315;-46
2023/12/28 10:48:10;;;;;;;;;;;;;;;10.92;100.00;100868.22;5044688;27;20019;-46
2023/12/28 10:51:01;;;;;;;;;;;;;;;10.92;100.00;100862.00;5104699;27;20428;-46
2023/12/28 10:53:29;;;;;;;;;;;;;;;10.96;100.00;100866.00;5091523;27;19915;-47
2023/12/28 10:56:07;;;;;;;;;;;;;;;10.96;100.00;100869.53;5053535;27;19967;-46
2023/12/28 10:58:52;;;;;;;;;;;;;;;10.94;100.00;100858.09;5094586;27;19947;-46
2023/12/28 11:01:29;;;;;;;;;;;;;;;10.98;100.00;100870.19;5044753;27;19925;-46
2023/12/28 11:03:59;;;;;;;;;;;;;;;10.94;100.00;100859.97;5108718;27;20414;-46
2023/12/28 11:06:25;;;;;;;;;;;;;;;10.91;100.00;100869.25;5071363;27;19936;-45
2023/12/28 11:08:51;;;;;;;;;;;;;;;10.82;100.00;100858.72;5085277;27;19917;-46
2023/12/28 11:11:16;;;;;;;;;;;;;;;10.81;100.00;100873.22;5086341;27;19926;-46
2023/12/28 11:13:41;;;;;;;;;;;;;;;10.78;100.00;100879.78;5066347;28;19921;-46
2023/12/28 11:16:07;;;;;;;;;;;;;;;10.76;100.00;100876.44;5119718;27;19929;-46
2023/12/28 11:18:32;;;;;;;;;;;;;;;10.76;100.00;100863.81;5049491;27;20012;-47
2023/12/28 11:20:57;;;;;;;;;;;;;;;10.75;100.00;100851.38;5099108;27;20202;-46
2023/12/28 11:23:23;;;;;;;;;;;;;;;10.69;100.00;100854.81;5099456;27;20069;-46
2023/12/28 11:25:48;;;;;;;;;;;;;;;10.69;100.00;100865.59;5064307;27;19917;-46
2023/12/28 11:28:15;;;;;;;;;;;;;;;10.67;100.00;100856.84;5100750;27;19925;-46
2023/12/28 11:30:41;;;;;;;;;;;;;;;10.69;100.00;100857.50;5055136;27;19932;-46
2023/12/28 11:33:06;;;;;;;;;;;;;;;10.68;100.00;100853.13;5071908;27;19927;-47
2023/12/28 11:35:34;;;;;;;;;;;;;;;10.68;100.00;100869.28;5098575;27;20365;-46
2023/12/28 11:38:02;;;;;;;;;;;;;;;10.72;100.00;100851.75;5091334;27;19949;-46
2023/12/28 11:40:28;;;;;;;;;;;;;;;10.71;100.00;100851.94;5067877;27;19923;-45
2023/12/28 11:42:54;;;;;;;;;;;;;;;10.79;100.00;100864.47;5107978;27;20413;-46
2023/12/28 11:45:19;;;;;;;;;;;;;;;10.77;100.00;100862.81;5066105;27;19923;-46
2023/12/28 11:47:45;;;;;;;;;;;;;;;10.73;100.00;100855.28;5088262;27;19928;-46
2023/12/28 11:50:10;;;;;;;;;;;;;;;10.76;100.00;100854.91;5025360;28;19963;-46
2023/12/28 11:52:35;;;;;;;;;;;;;;;10.84;100.00;100843.22;5096733;27;20377;-46
2023/12/28 11:55:01;;;;;;;;;;;;;;;10.81;100.00;100848.97;5059375;27;20015;-47
2023/12/28 11:57:26;;;;;;;;;;;;;;;10.85;100.00;100842.19;5055506;27;19915;-46
2023/12/28 11:59:58;;;;;;;;;;;;;;;10.82;100.00;100839.88;5118792;27;19938;-47
2023/12/28 12:02:26;;;;;;;;;;;;;;;10.85;100.00;100828.72;5087379;27;19916;-47
2023/12/28 12:04:51;;;;;;;;;;;;;;;10.91;100.00;100825.31;5104630;27;19945;-47
2023/12/28 12:07:17;;;;;;;;;;;;;;;10.92;100.00;100822.44;5119238;27;20982;-47
2023/12/28 12:09:42;;;;;;;;;;;;;;;10.95;100.00;100830.16;5085035;27;19923;-49
2023/12/28 12:12:07;;;;;;;;;;;;;;;11.05;100.00;100835.25;5093214;27;19925;-45
2023/12/28 12:14:33;;;;;;;;;;;;;;;10.98;100.00;100810.09;5039461;27;19924;-47
2023/12/28 12:16:58;;;;;;;;;;;;;;;10.98;100.00;100837.03;5045268;27;19924;-46
2023/12/28 12:19:25;;;;;;;;;;;;;;;10.99;100.00;100806.38;5050649;27;19918;-47
2023/12/28 12:21:51;;;;;;;;;;;;;;;11.04;100.00;100798.59;5046319;27;19917;-46